Bray, Oklahoma
Current Conditions -  °F | °C
As of 2:35 AM on Saturday 22 Nov 2014 (Local Time) from KDUC Reporting Station
Thunderstorm Thunderstorm  
Wind Chill: 63°   Ceiling: 400
Heat Index: 63°   Visibility: 5mi
Dew Point: 63°   Wind: 5mph
Humidity: 100%   Direction: 180°S
Pressure: 30.03"   Gusts: NA
Location:  34.61°N, 97.82°W
Report Text: KDUC 220835Z AUTO 18004KT 5SM -VCTSRA OVC004 17/17 A3003 RMK AO2 LTG DSNT E THRU SW
Loading
Personal Weather Stations






























Interactive Weather Map New forecast layout! Learn more

10-Day Weather Forecast

Advertisements
Track Severe Weather on mobile